Time;durP1;ratioP1;P1;durP2;ratioP2;P2;SDS_P1;SDS_P2;PMS_P1;PMS_P2;Temp;Humidity;BMP_temperature;BMP_pressure;BME280_temperature;BME280_humidity;BME280_pressure;Samples;Min_cycle;Max_cycle;Signal;HPM_P1;HPM_P2
2021/03/30 00:00:51;;;;;;;11.03;9.10;;;;;;;;;;5020234;28;20460;-54
2021/03/30 00:03:17;;;;;;;10.13;7.33;;;;;;;;;;5020520;28;20471;-51
2021/03/30 00:05:43;;;;;;;16.00;7.47;;;;;;;;;;5020891;28;20389;-52
2021/03/30 00:08:09;;;;;;;11.20;7.57;;;;;;;;;;5020210;28;20457;-52
2021/03/30 00:10:37;;;;;;;8.60;6.97;;;;;;;;;;5021591;28;21075;-52
2021/03/30 00:13:03;;;;;;;15.87;6.87;;;;;;;;;;5020761;28;20503;-53
2021/03/30 00:15:29;;;;;;;14.03;7.10;;;;;;;;;;5019377;28;20439;-53
2021/03/30 00:17:55;;;;;;;15.23;7.70;;;;;;;;;;5020149;28;20441;-52
2021/03/30 00:20:21;;;;;;;11.10;6.67;;;;;;;;;;5020136;28;20455;-52
2021/03/30 00:22:48;;;;;;;9.20;6.10;;;;;;;;;;5019757;28;20424;-52
2021/03/30 00:25:14;;;;;;;11.23;7.53;;;;;;;;;;5019494;28;20409;-52
2021/03/30 00:27:40;;;;;;;9.47;6.50;;;;;;;;;;5019648;28;20773;-52
2021/03/30 00:30:08;;;;;;;12.10;7.50;;;;;;;;;;5020197;28;20435;-52
2021/03/30 00:32:33;;;;;;;12.97;7.10;;;;;;;;;;5020057;28;20435;-52
2021/03/30 00:34:59;;;;;;;9.13;6.67;;;;;;;;;;5019366;28;20405;-51
2021/03/30 00:37:25;;;;;;;12.63;7.20;;;;;;;;;;5018742;28;20422;-52
2021/03/30 00:39:51;;;;;;;15.30;7.47;;;;;;;;;;5019007;28;20411;-51
2021/03/30 00:42:18;;;;;;;10.43;6.40;;;;;;;;;;5018827;28;20583;-51
2021/03/30 00:44:44;;;;;;;16.20;7.00;;;;;;;;;;5019681;28;20466;-52
2021/03/30 00:47:13;;;;;;;19.40;6.80;;;;;;;;;;5019241;28;20411;-53
2021/03/30 00:49:39;;;;;;;12.83;6.57;;;;;;;;;;5018686;28;20415;-52
2021/03/30 00:52:05;;;;;;;12.07;6.87;;;;;;;;;;5020067;28;20420;-51
2021/03/30 00:54:31;;;;;;;11.80;7.27;;;;;;;;;;5018819;28;20780;-52
2021/03/30 00:56:57;;;;;;;12.37;7.90;;;;;;;;;;5016991;28;20405;-51
2021/03/30 00:59:23;;;;;;;12.40;8.20;;;;;;;;;;5010582;28;20514;-50
2021/03/30 01:01:49;;;;;;;14.77;8.53;;;;;;;;;;5010558;28;20464;-53
2021/03/30 01:04:15;;;;;;;12.87;9.07;;;;;;;;;;5010002;28;20537;-51
2021/03/30 01:06:41;;;;;;;9.60;6.97;;;;;;;;;;5010221;28;20403;-51
2021/03/30 01:09:07;;;;;;;8.67;7.03;;;;;;;;;;5008128;28;20514;-50
2021/03/30 01:11:39;;;;;;;10.80;8.00;;;;;;;;;;5010517;28;20797;-52
2021/03/30 01:14:24;;;;;;;11.60;6.17;;;;;;;;;;5010845;28;20408;-50
2021/03/30 01:16:58;;;;;;;12.80;7.23;;;;;;;;;;5010745;28;20407;-50
2021/03/30 01:19:23;;;;;;;8.23;7.40;;;;;;;;;;5010541;28;20399;-51
2021/03/30 01:22:02;;;;;;;15.30;7.50;;;;;;;;;;5010370;28;20475;-52
2021/03/30 01:24:35;;;;;;;12.47;8.30;;;;;;;;;;5010908;28;20402;-50
2021/03/30 01:27:27;;;;;;;13.17;9.40;;;;;;;;;;5014329;28;20891;-52
2021/03/30 01:29:55;;;;;;;13.73;10.20;;;;;;;;;;4991496;28;20450;-52
2021/03/30 01:32:29;;;;;;;16.27;10.43;;;;;;;;;;5014242;28;20866;-52
2021/03/30 01:34:56;;;;;;;15.40;9.73;;;;;;;;;;5014603;28;20462;-50
2021/03/30 01:37:23;;;;;;;17.70;10.80;;;;;;;;;;5014261;28;20414;-50
2021/03/30 01:39:51;;;;;;;16.73;11.53;;;;;;;;;;5013400;28;20435;-50
2021/03/30 01:42:20;;;;;;;15.10;11.07;;;;;;;;;;5014062;28;20468;-51
2021/03/30 01:44:48;;;;;;;14.30;9.60;;;;;;;;;;5014598;28;20879;-52
2021/03/30 01:47:14;;;;;;;12.53;10.30;;;;;;;;;;5014536;28;20449;-50
2021/03/30 01:49:40;;;;;;;14.37;9.13;;;;;;;;;;5014269;28;20403;-50
2021/03/30 01:52:08;;;;;;;16.43;10.00;;;;;;;;;;5014415;28;20415;-52
2021/03/30 01:54:34;;;;;;;13.57;9.27;;;;;;;;;;5014237;28;20414;-50
2021/03/30 01:57:00;;;;;;;18.80;10.53;;;;;;;;;;5014123;28;20478;-52
2021/03/30 01:59:28;;;;;;;21.03;9.87;;;;;;;;;;5013660;28;20449;-53
2021/03/30 02:01:54;;;;;;;13.57;9.23;;;;;;;;;;5013936;28;20498;-50
2021/03/30 02:04:23;;;;;;;15.53;10.47;;;;;;;;;;5014085;28;20432;-54
2021/03/30 02:06:50;;;;;;;16.40;10.10;;;;;;;;;;5013043;28;20414;-53
2021/03/30 02:09:21;;;;;;;13.13;9.40;;;;;;;;;;5013543;28;20450;-50
2021/03/30 02:11:57;;;;;;;17.27;8.90;;;;;;;;;;5013679;28;20423;-51
2021/03/30 02:14:24;;;;;;;14.07;10.13;;;;;;;;;;5013747;28;20490;-50
2021/03/30 02:16:52;;;;;;;14.60;10.13;;;;;;;;;;5013622;28;20815;-50
2021/03/30 02:19:21;;;;;;;16.23;9.77;;;;;;;;;;5013532;28;20779;-51
2021/03/30 02:21:56;;;;;;;16.20;10.80;;;;;;;;;;5013399;28;20516;-52
2021/03/30 02:24:22;;;;;;;16.73;10.97;;;;;;;;;;5013580;28;20410;-51
2021/03/30 02:26:49;;;;;;;15.03;10.90;;;;;;;;;;5013595;28;20415;-50
2021/03/30 02:29:24;;;;;;;24.53;11.60;;;;;;;;;;5013335;28;20810;-52
2021/03/30 02:31:51;;;;;;;15.17;9.93;;;;;;;;;;5013441;28;20434;-52
2021/03/30 02:34:18;;;;;;;13.73;9.23;;;;;;;;;;5013293;28;20407;-51
2021/03/30 02:36:46;;;;;;;14.70;9.20;;;;;;;;;;5012028;28;20886;-51
2021/03/30 02:39:14;;;;;;;16.10;8.67;;;;;;;;;;5012014;28;20442;-51
2021/03/30 02:41:41;;;;;;;14.93;9.20;;;;;;;;;;5012941;28;20466;-50
2021/03/30 02:44:08;;;;;;;14.93;8.00;;;;;;;;;;5013052;28;20403;-51
2021/03/30 02:46:35;;;;;;;11.13;8.50;;;;;;;;;;5013109;28;20399;-51
2021/03/30 02:49:01;;;;;;;16.63;8.17;;;;;;;;;;5012745;28;20409;-50
2021/03/30 02:51:29;;;;;;;12.17;8.57;;;;;;;;;;5012878;28;20923;-50
2021/03/30 02:53:56;;;;;;;15.03;11.33;;;;;;;;;;5012876;28;20891;-51
2021/03/30 02:56:22;;;;;;;20.00;13.87;;;;;;;;;;5013136;28;20410;-51
2021/03/30 02:58:50;;;;;;;21.20;12.70;;;;;;;;;;5012568;28;20819;-50
2021/03/30 03:01:16;;;;;;;17.90;10.97;;;;;;;;;;5012777;28;21039;-51
2021/03/30 03:03:43;;;;;;;14.43;10.10;;;;;;;;;;5012656;28;20406;-51
2021/03/30 03:06:10;;;;;;;14.90;9.87;;;;;;;;;;5012718;28;20407;-53
2021/03/30 03:08:36;;;;;;;19.83;11.10;;;;;;;;;;5011440;28;20947;-51
2021/03/30 03:11:02;;;;;;;20.57;12.43;;;;;;;;;;5012515;28;20410;-52
2021/03/30 03:13:30;;;;;;;20.60;14.23;;;;;;;;;;5012695;28;20957;-51
2021/03/30 03:15:56;;;;;;;26.93;14.90;;;;;;;;;;5012499;28;20924;-50
2021/03/30 03:18:22;;;;;;;18.90;13.10;;;;;;;;;;5012163;28;20437;-50
2021/03/30 03:20:49;;;;;;;19.27;11.20;;;;;;;;;;5012277;28;20524;-52
2021/03/30 03:23:15;;;;;;;19.57;11.60;;;;;;;;;;5012372;28;20438;-51
2021/03/30 03:25:46;;;;;;;17.33;11.33;;;;;;;;;;5012349;28;20403;-50
2021/03/30 03:28:14;;;;;;;12.53;9.63;;;;;;;;;;5012137;28;20401;-52
2021/03/30 03:30:41;;;;;;;14.97;9.93;;;;;;;;;;5012210;28;20417;-50
2021/03/30 03:33:08;;;;;;;17.57;10.97;;;;;;;;;;5012188;28;20434;-51
2021/03/30 03:35:36;;;;;;;18.57;11.17;;;;;;;;;;5012082;28;20402;-51
2021/03/30 03:38:02;;;;;;;12.97;9.10;;;;;;;;;;5011034;28;20429;-51
2021/03/30 03:40:29;;;;;;;13.97;9.50;;;;;;;;;;5011987;28;20406;-52
2021/03/30 03:42:55;;;;;;;16.70;10.67;;;;;;;;;;5011812;28;20444;-51
2021/03/30 03:45:21;;;;;;;15.80;10.10;;;;;;;;;;5011996;28;20408;-51
2021/03/30 03:47:47;;;;;;;18.10;9.67;;;;;;;;;;5011480;28;20454;-51
2021/03/30 03:50:13;;;;;;;17.20;9.80;;;;;;;;;;5011816;28;20414;-51
2021/03/30 03:52:49;;;;;;;22.33;9.63;;;;;;;;;;5011766;28;20433;-50
2021/03/30 03:55:15;;;;;;;13.97;10.73;;;;;;;;;;5011921;28;20399;-52
2021/03/30 03:58:02;;;;;;;15.00;9.70;;;;;;;;;;5011610;28;20437;-51
2021/03/30 04:00:28;;;;;;;14.87;9.10;;;;;;;;;;5011776;28;20433;-50
2021/03/30 04:03:07;;;;;;;19.60;9.10;;;;;;;;;;5011633;28;20477;-50
2021/03/30 04:05:42;;;;;;;16.43;8.97;;;;;;;;;;5010520;28;20515;-53
2021/03/30 04:08:31;;;;;;;11.87;8.33;;;;;;;;;;5010609;28;20429;-51
2021/03/30 04:11:01;;;;;;;12.80;8.40;;;;;;;;;;5010068;28;20436;-51
2021/03/30 04:13:33;;;;;;;11.97;9.07;;;;;;;;;;5011084;28;20455;-50
2021/03/30 04:16:03;;;;;;;15.70;8.63;;;;;;;;;;5011583;28;20403;-50
2021/03/30 04:18:29;;;;;;;15.30;9.90;;;;;;;;;;5011216;28;20422;-50
2021/03/30 04:20:55;;;;;;;14.27;8.67;;;;;;;;;;5011255;28;20903;-51
2021/03/30 04:23:24;;;;;;;17.10;10.40;;;;;;;;;;5011411;28;21186;-50
2021/03/30 04:25:51;;;;;;;17.27;9.23;;;;;;;;;;5011324;28;20502;-51
2021/03/30 04:28:17;;;;;;;15.83;9.33;;;;;;;;;;5011136;28;20397;-51
2021/03/30 04:30:43;;;;;;;14.40;9.10;;;;;;;;;;5011244;28;20405;-50
2021/03/30 04:33:09;;;;;;;17.03;9.80;;;;;;;;;;5011244;28;20435;-50
2021/03/30 04:35:35;;;;;;;22.20;9.90;;;;;;;;;;5010991;28;20467;-50
2021/03/30 04:38:01;;;;;;;20.50;9.67;;;;;;;;;;5009870;28;20432;-50
2021/03/30 04:40:27;;;;;;;17.27;9.83;;;;;;;;;;5011035;28;20417;-50
2021/03/30 04:42:53;;;;;;;15.10;9.13;;;;;;;;;;5010967;28;20563;-51
2021/03/30 04:45:19;;;;;;;26.30;10.50;;;;;;;;;;5010277;28;20423;-50
2021/03/30 04:47:45;;;;;;;20.47;11.03;;;;;;;;;;5010800;28;20428;-50
2021/03/30 04:50:11;;;;;;;18.77;10.30;;;;;;;;;;5010880;28;20953;-52
2021/03/30 04:52:37;;;;;;;20.73;11.23;;;;;;;;;;5010840;28;20439;-51
2021/03/30 04:55:07;;;;;;;22.40;10.47;;;;;;;;;;5011015;28;20397;-51
2021/03/30 04:57:33;;;;;;;19.80;11.00;;;;;;;;;;5010638;28;20409;-50
2021/03/30 04:59:59;;;;;;;26.85;11.95;;;;;;;;;;5012618;28;20405;-50
2021/03/30 05:02:25;;;;;;;22.13;11.43;;;;;;;;;;5017241;28;20201;-51
2021/03/30 05:04:51;;;;;;;21.33;10.60;;;;;;;;;;5017424;28;20491;-51
2021/03/30 05:07:17;;;;;;;19.07;12.53;;;;;;;;;;5016323;28;20495;-54
2021/03/30 05:09:43;;;;;;;25.83;11.07;;;;;;;;;;5017100;28;20891;-51
2021/03/30 05:12:09;;;;;;;19.33;11.40;;;;;;;;;;5017312;28;20483;-50
2021/03/30 05:14:35;;;;;;;23.85;11.68;;;;;;;;;;5017309;28;20884;-51
2021/03/30 05:17:01;;;;;;;21.80;11.97;;;;;;;;;;5017288;28;20178;-51
2021/03/30 05:19:27;;;;;;;20.63;11.03;;;;;;;;;;5017177;28;20396;-51
2021/03/30 05:21:53;;;;;;;24.13;10.50;;;;;;;;;;5017095;28;20485;-52
2021/03/30 05:24:19;;;;;;;26.80;10.87;;;;;;;;;;5017165;28;20772;-50
2021/03/30 05:26:45;;;;;;;20.50;10.40;;;;;;;;;;5016024;28;20976;-51
2021/03/30 05:29:11;;;;;;;19.93;11.07;;;;;;;;;;5016989;28;20491;-54
2021/03/30 05:31:37;;;;;;;18.97;10.70;;;;;;;;;;5017157;28;20427;-50
2021/03/30 05:34:03;;;;;;;22.10;10.33;;;;;;;;;;5017075;28;21293;-50
2021/03/30 05:36:30;;;;;;;16.60;10.17;;;;;;;;;;5016231;28;20891;-52
2021/03/30 05:38:56;;;;;;;21.87;11.60;;;;;;;;;;5016659;28;20403;-51
2021/03/30 05:41:22;;;;;;;15.23;9.80;;;;;;;;;;5016820;28;20966;-51
2021/03/30 05:43:48;;;;;;;19.35;10.93;;;;;;;;;;5017091;28;20396;-51
2021/03/30 05:46:14;;;;;;;20.80;9.73;;;;;;;;;;5016979;28;20252;-52
2021/03/30 05:48:45;;;;;;;22.33;10.10;;;;;;;;;;5016794;28;20406;-53
2021/03/30 05:51:12;;;;;;;23.67;10.20;;;;;;;;;;5017293;28;20204;-50
2021/03/30 05:53:39;;;;;;;18.77;10.17;;;;;;;;;;5017240;28;20418;-52
2021/03/30 05:56:06;;;;;;;19.83;11.70;;;;;;;;;;5017302;28;20444;-50
2021/03/30 05:58:33;;;;;;;20.23;11.20;;;;;;;;;;5016789;28;20405;-50
2021/03/30 06:01:03;;;;;;;19.40;10.43;;;;;;;;;;5016922;28;20934;-50
2021/03/30 06:03:29;;;;;;;20.00;11.60;;;;;;;;;;5017232;28;20443;-50
2021/03/30 06:05:57;;;;;;;19.10;10.40;;;;;;;;;;5016034;28;20629;-50
2021/03/30 06:08:23;;;;;;;18.90;10.97;;;;;;;;;;5016691;28;20442;-50
2021/03/30 06:10:52;;;;;;;17.53;11.00;;;;;;;;;;5016636;28;20889;-50
2021/03/30 06:13:38;;;;;;;14.37;10.30;;;;;;;;;;5013914;28;20465;-50
2021/03/30 06:16:22;;;;;;;18.53;10.67;;;;;;;;;;5013796;28;20442;-50
2021/03/30 06:18:48;;;;;;;17.90;10.43;;;;;;;;;;5013345;28;20427;-50
2021/03/30 06:21:15;;;;;;;18.03;11.27;;;;;;;;;;5013520;28;21040;-50
2021/03/30 06:23:41;;;;;;;19.20;10.80;;;;;;;;;;5013355;28;20453;-51
2021/03/30 06:26:15;;;;;;;15.20;10.33;;;;;;;;;;5013512;28;20430;-51
2021/03/30 06:28:41;;;;;;;22.63;11.13;;;;;;;;;;5013167;28;20406;-52
2021/03/30 06:31:14;;;;;;;18.73;11.50;;;;;;;;;;5013382;28;20417;-52
2021/03/30 06:33:55;;;;;;;20.93;11.27;;;;;;;;;;5013438;28;20417;-51
2021/03/30 06:36:32;;;;;;;24.17;10.70;;;;;;;;;;5012188;28;20425;-51
2021/03/30 06:39:02;;;;;;;18.13;10.00;;;;;;;;;;5013143;28;20967;-52
2021/03/30 06:42:21;;;;;;;19.17;11.53;;;;;;;;;;5013061;28;20494;-50
2021/03/30 06:44:31;;;;;;;26.13;12.07;;;;;;;;;;5007577;28;20831;-52
2021/03/30 06:47:07;;;;;;;16.17;10.40;;;;;;;;;;5012913;28;20467;-52
2021/03/30 06:49:34;;;;;;;19.93;12.33;;;;;;;;;;5012415;28;20404;-52
2021/03/30 06:52:11;;;;;;;33.00;12.60;;;;;;;;;;5012341;28;20945;-51
2021/03/30 06:54:37;;;;;;;18.60;10.90;;;;;;;;;;5012510;28;20403;-52
2021/03/30 06:57:03;;;;;;;18.30;11.20;;;;;;;;;;5012629;28;20437;-58
2021/03/30 06:59:41;;;;;;;26.30;12.00;;;;;;;;;;5012104;28;20467;-53
2021/03/30 07:02:07;;;;;;;23.67;12.10;;;;;;;;;;5012052;28;20473;-50
2021/03/30 07:04:33;;;;;;;23.30;11.30;;;;;;;;;;5012324;28;20408;-51
2021/03/30 07:06:59;;;;;;;20.40;11.73;;;;;;;;;;5011368;28;20431;-51
2021/03/30 07:09:26;;;;;;;22.70;11.57;;;;;;;;;;5012522;28;20831;-51
2021/03/30 07:11:52;;;;;;;18.13;11.70;;;;;;;;;;5012561;28;20438;-54
2021/03/30 07:14:18;;;;;;;22.50;11.63;;;;;;;;;;5012421;28;20399;-50
2021/03/30 07:16:52;;;;;;;16.77;10.83;;;;;;;;;;5012494;28;20442;-51
2021/03/30 07:19:23;;;;;;;17.60;10.47;;;;;;;;;;5008374;28;20397;-54
2021/03/30 07:21:58;;;;;;;30.33;12.33;;;;;;;;;;5017486;28;20433;-53
2021/03/30 07:24:26;;;;;;;21.37;12.00;;;;;;;;;;5016566;28;20434;-53
2021/03/30 07:26:59;;;;;;;22.50;11.60;;;;;;;;;;5015176;28;20485;-52
2021/03/30 07:29:30;;;;;;;25.03;11.83;;;;;;;;;;5010817;28;20525;-53
2021/03/30 07:32:00;;;;;;;32.80;12.77;;;;;;;;;;5010507;28;21154;-53
2021/03/30 07:34:45;;;;;;;20.37;12.70;;;;;;;;;;5011501;28;20405;-53
2021/03/30 07:37:15;;;;;;;17.40;10.97;;;;;;;;;;5010203;28;21319;-52
2021/03/30 07:39:46;;;;;;;24.27;12.20;;;;;;;;;;5012132;28;20395;-52
2021/03/30 07:42:12;;;;;;;21.67;13.10;;;;;;;;;;5012059;28;20473;-51
2021/03/30 07:44:39;;;;;;;21.20;12.73;;;;;;;;;;5012092;28;20394;-51
2021/03/30 07:47:05;;;;;;;20.57;12.33;;;;;;;;;;5012251;28;20434;-51
2021/03/30 07:49:31;;;;;;;20.53;12.37;;;;;;;;;;5011985;28;20392;-51
2021/03/30 07:52:17;;;;;;;19.97;12.97;;;;;;;;;;5012315;28;20505;-52
2021/03/30 07:55:03;;;;;;;18.00;11.87;;;;;;;;;;5010815;28;20414;-53
2021/03/30 07:57:47;;;;;;;24.13;12.67;;;;;;;;;;5011513;28;20399;-52
2021/03/30 08:00:33;;;;;;;18.40;12.03;;;;;;;;;;5011711;28;20485;-52
2021/03/30 08:03:18;;;;;;;26.33;13.43;;;;;;;;;;5011659;28;20793;-53
2021/03/30 08:05:44;;;;;;;23.77;12.80;;;;;;;;;;5010893;28;20553;-52
2021/03/30 08:08:18;;;;;;;18.20;12.20;;;;;;;;;;5011341;28;20450;-52
2021/03/30 08:10:46;;;;;;;25.93;12.90;;;;;;;;;;5011718;28;21010;-52
2021/03/30 08:13:27;;;;;;;21.23;13.47;;;;;;;;;;5011321;28;20450;-56
2021/03/30 08:16:03;;;;;;;23.63;12.63;;;;;;;;;;4991942;28;20404;-52
2021/03/30 08:18:31;;;;;;;20.17;12.87;;;;;;;;;;4991659;28;20435;-54
2021/03/30 08:20:57;;;;;;;22.47;12.87;;;;;;;;;;4991784;28;20460;-52
2021/03/30 08:23:23;;;;;;;17.93;12.33;;;;;;;;;;4991882;28;20412;-51
2021/03/30 08:25:52;;;;;;;25.17;13.63;;;;;;;;;;4991848;28;20404;-54
2021/03/30 08:28:37;;;;;;;24.07;13.10;;;;;;;;;;4991395;28;20403;-53
2021/03/30 08:31:03;;;;;;;20.60;13.37;;;;;;;;;;4991623;28;20490;-52
2021/03/30 08:33:33;;;;;;;20.60;13.80;;;;;;;;;;4990223;28;20557;-52
2021/03/30 08:36:19;;;;;;;21.50;13.70;;;;;;;;;;5003271;28;20427;-52
2021/03/30 08:38:48;;;;;;;25.90;14.70;;;;;;;;;;5010913;28;20402;-52
2021/03/30 08:41:34;;;;;;;22.77;14.60;;;;;;;;;;5010940;28;20470;-54
2021/03/30 08:44:18;;;;;;;25.10;16.47;;;;;;;;;;5010683;28;20433;-52
2021/03/30 08:46:46;;;;;;;29.73;16.20;;;;;;;;;;5011161;28;20478;-52
2021/03/30 08:49:21;;;;;;;36.50;18.93;;;;;;;;;;5010739;28;20486;-53
2021/03/30 08:51:47;;;;;;;26.30;18.00;;;;;;;;;;5010879;28;20422;-52
2021/03/30 08:54:13;;;;;;;25.73;16.10;;;;;;;;;;5010915;28;20402;-52
2021/03/30 08:56:41;;;;;;;26.83;18.97;;;;;;;;;;5010805;28;20485;-53
2021/03/30 08:59:09;;;;;;;31.33;19.87;;;;;;;;;;5010613;28;20898;-54
2021/03/30 09:01:35;;;;;;;25.73;17.13;;;;;;;;;;5010666;28;20482;-52
2021/03/30 09:04:01;;;;;;;31.67;21.23;;;;;;;;;;5010899;28;20466;-52
2021/03/30 09:06:34;;;;;;;28.27;18.60;;;;;;;;;;5009809;28;21003;-53
2021/03/30 09:09:00;;;;;;;24.00;16.97;;;;;;;;;;5010882;28;20399;-53
2021/03/30 09:11:27;;;;;;;23.10;17.50;;;;;;;;;;5010733;28;20450;-53
2021/03/30 09:14:02;;;;;;;27.53;18.13;;;;;;;;;;5010781;28;20931;-52
2021/03/30 09:16:28;;;;;;;26.93;17.80;;;;;;;;;;5010764;28;20399;-55
2021/03/30 09:19:13;;;;;;;26.73;18.10;;;;;;;;;;5010348;28;20411;-54
2021/03/30 09:21:40;;;;;;;26.93;19.90;;;;;;;;;;5010818;28;20466;-52
2021/03/30 09:24:14;;;;;;;29.90;19.20;;;;;;;;;;5010753;28;21124;-52
2021/03/30 09:26:42;;;;;;;25.43;17.90;;;;;;;;;;5010800;28;20439;-53
2021/03/30 09:29:08;;;;;;;21.20;16.40;;;;;;;;;;5010300;28;20404;-53
2021/03/30 09:31:35;;;;;;;26.60;17.37;;;;;;;;;;5010563;28;20438;-52
2021/03/30 09:34:01;;;;;;;26.30;16.40;;;;;;;;;;5010410;28;20407;-57
2021/03/30 09:36:27;;;;;;;22.20;15.47;;;;;;;;;;5010344;28;20984;-54
2021/03/30 09:38:57;;;;;;;20.60;16.00;;;;;;;;;;5010416;28;20395;-53
2021/03/30 09:41:42;;;;;;;27.47;18.30;;;;;;;;;;5010478;28;20465;-52
2021/03/30 09:44:08;;;;;;;18.07;14.13;;;;;;;;;;5010514;28;20403;-52
2021/03/30 09:46:35;;;;;;;22.53;13.93;;;;;;;;;;5012012;28;20478;-52
2021/03/30 09:49:01;;;;;;;17.60;13.40;;;;;;;;;;5014118;28;20403;-52
2021/03/30 09:51:27;;;;;;;16.90;12.67;;;;;;;;;;5014241;28;20421;-56
2021/03/30 09:53:53;;;;;;;16.57;12.10;;;;;;;;;;5014346;28;20391;-56
2021/03/30 09:56:21;;;;;;;16.73;12.37;;;;;;;;;;5014242;28;20487;-56
2021/03/30 09:58:47;;;;;;;16.37;13.10;;;;;;;;;;5014126;28;20486;-53
2021/03/30 10:01:13;;;;;;;18.83;12.97;;;;;;;;;;5013943;28;20550;-52
2021/03/30 10:03:39;;;;;;;18.30;13.23;;;;;;;;;;5014029;28;20402;-52
2021/03/30 10:06:17;;;;;;;16.80;12.73;;;;;;;;;;5012984;28;20450;-52
2021/03/30 10:08:43;;;;;;;22.37;13.40;;;;;;;;;;5013636;28;20403;-52
2021/03/30 10:11:09;;;;;;;17.73;13.50;;;;;;;;;;5013641;28;20481;-53
2021/03/30 10:13:39;;;;;;;18.43;13.10;;;;;;;;;;5013844;28;20437;-52
2021/03/30 10:16:10;;;;;;;15.53;12.60;;;;;;;;;;5013963;28;20816;-52
2021/03/30 10:18:37;;;;;;;18.13;13.23;;;;;;;;;;5013432;28;20411;-54
2021/03/30 10:21:14;;;;;;;16.83;12.60;;;;;;;;;;5013609;28;20456;-53
2021/03/30 10:23:43;;;;;;;30.23;14.07;;;;;;;;;;5013519;28;20399;-54
2021/03/30 10:26:15;;;;;;;19.87;13.60;;;;;;;;;;5013602;28;20392;-53
2021/03/30 10:28:41;;;;;;;20.00;12.57;;;;;;;;;;5013208;28;20438;-52
2021/03/30 10:31:23;;;;;;;18.50;13.73;;;;;;;;;;5013455;28;20428;-52
2021/03/30 10:33:50;;;;;;;19.17;14.47;;;;;;;;;;5012529;28;20400;-53
2021/03/30 10:36:16;;;;;;;18.77;13.00;;;;;;;;;;5013416;28;20438;-53
2021/03/30 10:39:09;;;;;;;19.30;13.97;;;;;;;;;;5013038;28;20400;-55
2021/03/30 10:41:36;;;;;;;20.73;15.23;;;;;;;;;;5011934;28;20880;-52
2021/03/30 10:44:03;;;;;;;22.00;16.17;;;;;;;;;;5013259;28;20844;-53
2021/03/30 10:46:29;;;;;;;20.40;15.07;;;;;;;;;;5005128;28;20450;-52
2021/03/30 10:49:02;;;;;;;22.00;13.80;;;;;;;;;;5012711;28;20803;-53
2021/03/30 10:51:31;;;;;;;19.77;14.97;;;;;;;;;;5013684;28;20454;-56
2021/03/30 10:53:58;;;;;;;21.50;15.57;;;;;;;;;;5013049;28;20486;-55
2021/03/30 10:56:24;;;;;;;21.00;15.33;;;;;;;;;;5013139;28;20903;-56
2021/03/30 10:58:50;;;;;;;19.50;15.13;;;;;;;;;;5011806;28;20502;-56
2021/03/30 11:01:16;;;;;;;22.37;16.90;;;;;;;;;;5012464;28;20833;-56
2021/03/30 11:03:42;;;;;;;24.20;15.90;;;;;;;;;;5012050;28;20431;-55
2021/03/30 11:06:08;;;;;;;22.80;15.50;;;;;;;;;;5012845;28;20235;-56
2021/03/30 11:08:34;;;;;;;23.83;16.40;;;;;;;;;;5012493;28;20942;-55
2021/03/30 11:11:00;;;;;;;22.07;15.47;;;;;;;;;;5012521;28;20403;-54
2021/03/30 11:13:26;;;;;;;21.60;15.30;;;;;;;;;;5012580;28;20899;-55
2021/03/30 11:15:52;;;;;;;22.27;15.50;;;;;;;;;;5010548;28;20415;-55
2021/03/30 11:18:19;;;;;;;24.10;16.50;;;;;;;;;;5011858;28;20405;-56
2021/03/30 11:20:45;;;;;;;19.80;16.40;;;;;;;;;;5012490;28;20407;-56
2021/03/30 11:23:11;;;;;;;22.07;15.13;;;;;;;;;;5009049;28;20522;-55
2021/03/30 11:25:38;;;;;;;20.70;15.00;;;;;;;;;;4997784;28;20998;-55
2021/03/30 11:28:07;;;;;;;18.10;13.73;;;;;;;;;;4996230;28;20415;-55
2021/03/30 11:30:39;;;;;;;23.37;17.43;;;;;;;;;;4993041;28;20407;-56
2021/03/30 11:33:23;;;;;;;20.00;15.30;;;;;;;;;;5003044;28;20473;-55
2021/03/30 11:38:15;;;;;;;22.20;14.47;;;;;;;;;;4992474;28;20408;-55
2021/03/30 11:40:41;;;;;;;20.50;14.63;;;;;;;;;;4999403;28;20179;-55
2021/03/30 11:43:07;;;;;;;17.93;13.80;;;;;;;;;;5008456;28;20493;-56
2021/03/30 11:45:34;;;;;;;21.53;13.90;;;;;;;;;;5011639;28;20412;-55
2021/03/30 11:48:00;;;;;;;23.20;14.77;;;;;;;;;;5008941;28;20911;-56
2021/03/30 11:50:26;;;;;;;18.30;13.07;;;;;;;;;;5005007;28;20452;-56
2021/03/30 11:52:53;;;;;;;22.50;14.47;;;;;;;;;;4995249;28;20449;-56
2021/03/30 11:55:19;;;;;;;21.97;15.70;;;;;;;;;;5002086;28;20419;-55
2021/03/30 11:57:45;;;;;;;19.97;15.10;;;;;;;;;;4999910;28;20391;-55
2021/03/30 12:00:12;;;;;;;18.83;15.20;;;;;;;;;;5011146;28;20383;-56
2021/03/30 12:02:38;;;;;;;19.30;13.80;;;;;;;;;;5010164;28;20794;-56
2021/03/30 12:05:05;;;;;;;21.07;14.17;;;;;;;;;;5006660;28;20427;-55
2021/03/30 12:07:31;;;;;;;21.57;14.50;;;;;;;;;;5003132;28;20419;-56
2021/03/30 12:09:57;;;;;;;23.93;14.70;;;;;;;;;;4998685;28;20451;-56
2021/03/30 12:12:23;;;;;;;20.53;13.03;;;;;;;;;;5001602;28;20605;-55
2021/03/30 12:14:49;;;;;;;19.33;13.20;;;;;;;;;;5009136;28;20502;-56
2021/03/30 12:17:15;;;;;;;18.93;12.80;;;;;;;;;;5010912;28;20422;-55
2021/03/30 12:19:41;;;;;;;18.73;13.57;;;;;;;;;;5010403;28;20399;-55
2021/03/30 12:22:07;;;;;;;18.73;13.87;;;;;;;;;;5009539;28;20188;-55
2021/03/30 12:24:33;;;;;;;19.07;13.33;;;;;;;;;;5009641;28;20180;-56
2021/03/30 12:26:59;;;;;;;20.00;13.40;;;;;;;;;;5009418;28;21109;-57
2021/03/30 12:29:26;;;;;;;20.30;12.90;;;;;;;;;;5009392;28;20407;-56
2021/03/30 12:31:52;;;;;;;18.23;12.73;;;;;;;;;;5009380;28;20459;-55
2021/03/30 12:34:18;;;;;;;16.07;11.73;;;;;;;;;;5008636;28;20461;-56
2021/03/30 12:36:44;;;;;;;16.33;12.57;;;;;;;;;;5011163;28;20403;-55
2021/03/30 12:39:10;;;;;;;19.37;13.40;;;;;;;;;;5010812;28;20461;-55
2021/03/30 12:41:36;;;;;;;17.90;13.33;;;;;;;;;;5011175;28;20457;-55
2021/03/30 12:44:03;;;;;;;23.20;12.30;;;;;;;;;;5011088;28;20887;-55
2021/03/30 12:46:29;;;;;;;18.37;12.80;;;;;;;;;;5011089;28;20436;-55
2021/03/30 12:48:55;;;;;;;22.00;14.30;;;;;;;;;;5009070;28;20470;-55
2021/03/30 12:51:21;;;;;;;18.13;12.90;;;;;;;;;;5010952;28;20207;-55
2021/03/30 12:53:47;;;;;;;17.90;13.67;;;;;;;;;;5010839;28;20888;-56
2021/03/30 12:56:13;;;;;;;16.13;12.37;;;;;;;;;;5011218;28;20403;-56
2021/03/30 12:58:39;;;;;;;21.00;13.30;;;;;;;;;;5014378;28;20916;-57
2021/03/30 13:01:05;;;;;;;20.00;14.03;;;;;;;;;;5016016;28;20407;-57
2021/03/30 13:03:31;;;;;;;21.50;14.73;;;;;;;;;;5015256;28;20438;-57
2021/03/30 13:05:56;;;;;;;23.90;13.93;;;;;;;;;;5017167;28;20178;-56
2021/03/30 13:08:22;;;;;;;22.00;14.70;;;;;;;;;;5016764;28;20405;-55
2021/03/30 13:10:48;;;;;;;20.20;14.20;;;;;;;;;;5016359;28;20184;-56
2021/03/30 13:13:15;;;;;;;19.53;14.10;;;;;;;;;;5016297;28;20419;-55
2021/03/30 13:15:40;;;;;;;18.03;13.30;;;;;;;;;;5016874;28;20434;-56
2021/03/30 13:18:07;;;;;;;17.83;13.07;;;;;;;;;;5015910;28;20395;-54
2021/03/30 13:20:33;;;;;;;17.47;13.70;;;;;;;;;;5016525;28;20788;-57
2021/03/30 13:22:59;;;;;;;17.70;13.67;;;;;;;;;;5018100;28;20438;-56
2021/03/30 13:25:33;;;;;;;18.60;13.70;;;;;;;;;;5019194;28;20424;-56
2021/03/30 13:27:59;;;;;;;18.17;13.20;;;;;;;;;;5018704;28;20395;-55
2021/03/30 13:30:25;;;;;;;16.37;12.90;;;;;;;;;;5019644;28;20486;-56
2021/03/30 13:32:51;;;;;;;17.60;13.13;;;;;;;;;;5018520;28;20994;-55
2021/03/30 13:35:17;;;;;;;17.57;12.60;;;;;;;;;;5019608;28;20409;-57
2021/03/30 13:37:43;;;;;;;17.00;12.30;;;;;;;;;;5019777;28;20407;-56
2021/03/30 13:40:10;;;;;;;16.73;12.83;;;;;;;;;;5019962;28;20966;-56
2021/03/30 13:42:36;;;;;;;18.40;13.43;;;;;;;;;;5019113;28;20207;-57
2021/03/30 13:45:02;;;;;;;13.90;11.60;;;;;;;;;;5019721;28;20489;-57
2021/03/30 13:47:28;;;;;;;20.60;13.50;;;;;;;;;;5019309;28;20514;-56
2021/03/30 13:49:54;;;;;;;17.67;13.77;;;;;;;;;;5019680;28;20445;-56
2021/03/30 13:52:20;;;;;;;19.03;14.37;;;;;;;;;;5020130;28;20466;-56
2021/03/30 13:54:46;;;;;;;19.27;12.67;;;;;;;;;;5019896;28;20493;-57
2021/03/30 13:57:12;;;;;;;17.20;13.03;;;;;;;;;;5018667;28;20770;-56
2021/03/30 13:59:38;;;;;;;19.10;12.03;;;;;;;;;;5018857;28;20403;-56
2021/03/30 14:02:04;;;;;;;18.33;12.67;;;;;;;;;;5019671;28;20817;-55
2021/03/30 14:04:30;;;;;;;17.60;12.70;;;;;;;;;;5018451;28;20415;-56
2021/03/30 14:06:56;;;;;;;18.43;13.57;;;;;;;;;;5019805;28;21106;-57
2021/03/30 14:09:23;;;;;;;18.60;13.90;;;;;;;;;;5018036;28;20176;-56
2021/03/30 14:12:24;;;;;;;19.50;14.27;;;;;;;;;;5017734;28;20512;-55
2021/03/30 14:14:43;;;;;;;19.80;13.60;;;;;;;;;;5014707;28;20422;-56
2021/03/30 14:17:24;;;;;;;17.47;12.50;;;;;;;;;;5018937;28;20472;-57
2021/03/30 14:19:53;;;;;;;18.17;13.50;;;;;;;;;;5018164;28;20406;-55
2021/03/30 14:22:23;;;;;;;18.23;12.80;;;;;;;;;;5017852;28;20497;-56
2021/03/30 14:24:57;;;;;;;19.40;12.90;;;;;;;;;;5018266;28;20407;-56
2021/03/30 14:27:25;;;;;;;17.90;13.13;;;;;;;;;;5017151;28;20414;-57
2021/03/30 14:29:51;;;;;;;15.53;12.37;;;;;;;;;;5018334;28;20466;-56
2021/03/30 14:32:21;;;;;;;15.00;11.07;;;;;;;;;;5016575;28;21072;-57